Time;durP1;ratioP1;P1;durP2;ratioP2;P2;SDS_P1;SDS_P2;PMS_P1;PMS_P2;Temp;Humidity;BMP_temperature;BMP_pressure;BME280_temperature;BME280_humidity;BME280_pressure;Samples;Min_cycle;Max_cycle;Signal;HPM_P1;HPM_P2
2022/10/17 08:35:31;;;;;;;;;6.00;6.00;;;;;21.13;52.11;101441.19;5017054;28;45868;-62
2022/10/17 08:38:00;;;;;;;;;4.25;4.25;;;;;21.13;51.71;101446.47;5018871;28;45339;-65
2022/10/17 08:40:29;;;;;;;;;5.00;5.00;;;;;21.13;51.70;101451.75;5036118;28;45367;-60
2022/10/17 08:43:21;;;;;;;;;4.00;4.00;;;;;21.15;52.01;101454.28;5029351;28;45305;-61
2022/10/17 08:45:53;;;;;;;;;6.00;4.50;;;;;21.16;51.79;101456.00;5017976;28;45396;-60
2022/10/17 08:48:23;;;;;;;;;6.75;5.25;;;;;21.15;51.82;101463.06;5017052;28;45518;-59
2022/10/17 08:51:10;;;;;;;;;6.00;4.50;;;;;21.13;52.11;101457.03;5017520;28;45441;-61
2022/10/17 08:53:42;;;;;;;;;5.25;5.25;;;;;21.16;51.77;101471.81;5017708;28;45352;-59
2022/10/17 08:56:13;;;;;;;;;6.50;5.00;;;;;21.16;51.96;101477.09;5016982;28;46133;-59
2022/10/17 08:58:38;;;;;;;;;6.00;5.25;;;;;21.16;51.69;101471.81;5017255;28;45780;-59
2022/10/17 09:01:32;;;;;;;;;6.00;5.00;;;;;21.17;51.68;101478.81;5017193;28;45433;-59
2022/10/17 09:04:35;;;;;;;;;5.00;5.00;;;;;21.17;51.74;101476.16;5032503;28;45206;-59
2022/10/17 09:07:12;;;;;;;;;5.75;5.75;;;;;21.17;51.60;101489.34;5042382;28;46026;-59
2022/10/17 09:10:07;;;;;;;;;6.25;4.00;;;;;21.17;51.80;101495.47;5020823;28;45725;-60
2022/10/17 09:13:02;;;;;;;;;4.75;4.75;;;;;21.18;51.72;101501.59;5017291;28;45309;-61
2022/10/17 09:15:39;;;;;;;;;6.75;5.00;;;;;21.17;51.78;101518.34;5017210;28;45367;-62
2022/10/17 09:18:14;;;;;;;;;5.50;5.00;;;;;21.16;51.81;101525.41;5016470;28;46136;-60
2022/10/17 09:20:48;;;;;;;;;5.00;5.00;;;;;21.17;51.58;101526.25;5016989;28;45945;-59
2022/10/17 09:23:21;;;;;;;;;5.00;5.00;;;;;21.17;51.90;101536.81;5017017;28;45236;-61
2022/10/17 09:25:51;;;;;;;;;7.00;5.25;;;;;21.19;51.81;101544.63;5018383;28;45336;-61
2022/10/17 09:28:35;;;;;;;;;4.00;4.00;;;;;21.18;51.56;101543.78;5025580;28;46242;-58
2022/10/17 09:31:30;;;;;;;;;5.75;5.75;;;;;21.17;51.60;101542.06;5034232;28;45386;-60
2022/10/17 09:33:59;;;;;;;;;4.25;4.25;;;;;21.18;51.93;101549.06;5035038;28;45359;-62
2022/10/17 09:36:28;;;;;;;;;5.50;5.50;;;;;21.19;51.73;101552.53;5017354;28;45597;-60
2022/10/17 09:38:57;;;;;;;;;4.25;4.00;;;;;21.19;51.79;101552.53;5016647;28;45411;-62
2022/10/17 09:41:37;;;;;;;;;5.50;5.00;;;;;21.19;51.87;101560.44;5016240;28;45467;-63
2022/10/17 09:44:12;;;;;;;;;3.75;3.75;;;;;21.18;51.56;101564.88;5016115;28;45411;-61
2022/10/17 09:46:38;;;;;;;;;4.25;4.25;;;;;21.18;51.76;101567.50;5016718;28;45420;-61
2022/10/17 09:49:13;;;;;;;;;3.75;3.25;;;;;21.18;51.67;101570.16;5015855;28;46384;-63
2022/10/17 09:51:39;;;;;;;;;5.50;4.25;;;;;21.18;52.00;101564.88;5016228;28;45779;-59
2022/10/17 09:54:19;;;;;;;;;5.25;5.25;;;;;21.19;51.84;101569.22;5015890;28;45449;-60
2022/10/17 09:57:01;;;;;;;;;5.50;5.50;;;;;21.17;51.49;101564.00;5016484;28;45419;-58
2022/10/17 09:59:42;;;;;;;;;5.00;5.00;;;;;21.17;51.69;101564.00;5015913;28;45958;-58
2022/10/17 10:02:11;;;;;;;;;4.00;4.00;;;;;21.18;51.79;101559.59;5015595;28;46032;-59
2022/10/17 10:04:56;;;;;;;;;5.50;4.75;;;;;21.17;51.86;101557.88;5016592;28;45367;-58
2022/10/17 10:07:22;;;;;;;;;4.25;4.25;;;;;21.21;52.03;101564.75;5019908;28;45423;-59
2022/10/17 10:09:49;;;;;;;;;5.25;4.25;;;;;21.18;51.80;101562.25;5029753;28;46225;-58
2022/10/17 10:12:16;;;;;;;;;4.25;4.25;;;;;21.20;51.66;101570.06;5016695;28;45308;-59
2022/10/17 10:14:41;;;;;;;;;6.00;5.00;;;;;21.20;51.72;101562.16;5015480;28;45368;-59
2022/10/17 10:17:31;;;;;;;;;3.50;3.50;;;;;21.19;51.92;101569.22;5016240;28;45313;-60
2022/10/17 10:19:57;;;;;;;;;5.00;5.00;;;;;21.20;51.95;101573.56;5015697;28;46195;-59
2022/10/17 10:22:22;;;;;;;;;4.25;4.25;;;;;21.20;51.97;101584.13;5015032;28;45316;-59
2022/10/17 10:25:07;;;;;;;;;5.50;5.50;;;;;21.20;52.05;101597.28;5016042;28;45347;-59
2022/10/17 10:27:33;;;;;;;;;5.50;3.00;;;;;21.21;52.06;101600.78;5016039;28;45394;-59
2022/10/17 10:29:58;;;;;;;;;6.25;4.75;;;;;21.19;51.69;101607.91;5015598;28;45427;-61
2022/10/17 10:32:29;;;;;;;;;5.00;5.00;;;;;21.21;51.60;101630.66;5016456;28;45278;-60
2022/10/17 10:35:14;;;;;;;;;4.75;4.75;;;;;21.20;52.02;101631.56;5026064;28;45633;-59
2022/10/17 10:37:43;;;;;;;;;6.75;4.75;;;;;21.21;51.99;101633.28;5023228;28;45467;-60
2022/10/17 10:40:19;;;;;;;;;6.25;5.00;;;;;21.21;51.86;101630.66;5025456;28;45416;-60
2022/10/17 10:42:53;;;;;;;;;3.00;3.00;;;;;21.21;51.85;101627.13;5022747;28;45385;-60
2022/10/17 10:45:26;;;;;;;;;6.00;5.00;;;;;21.21;51.98;101633.28;5024468;28;45379;-61
2022/10/17 10:48:02;;;;;;;;;4.75;3.50;;;;;21.23;51.91;101641.94;5033146;28;44738;-59
2022/10/17 10:50:44;;;;;;;;;6.00;5.00;;;;;21.24;51.84;101653.38;5037409;28;45177;-60
2022/10/17 10:53:12;;;;;;;;;5.00;4.75;;;;;21.23;51.77;101655.13;5029531;28;45272;-60
2022/10/17 10:55:45;;;;;;;;;5.00;4.00;;;;;21.22;52.12;101649.94;5021952;28;45459;-59
2022/10/17 10:58:40;;;;;;;;;4.75;4.75;;;;;21.24;51.91;101663.91;5021858;28;45403;-59
2022/10/17 11:01:21;;;;;;;;;4.25;4.00;;;;;21.22;52.20;101671.03;5007579;28;46250;-59
2022/10/17 11:03:53;;;;;;;;;5.75;5.75;;;;;21.23;52.22;101668.31;5016834;28;45457;-59
2022/10/17 11:06:26;;;;;;;;;4.50;4.50;;;;;21.24;52.05;101656.00;5035330;28;45363;-59
2022/10/17 11:09:02;;;;;;;;;4.00;4.00;;;;;21.25;52.00;101641.91;5042840;28;45308;-60
2022/10/17 11:11:33;;;;;;;;;4.00;4.00;;;;;21.25;52.04;101639.25;5041164;28;45387;-59
2022/10/17 11:14:37;;;;;;;;;6.00;5.00;;;;;21.25;52.03;101655.94;5028941;28;45753;-59
2022/10/17 11:17:14;;;;;;;;;3.00;3.00;;;;;21.24;52.01;101664.75;5022627;28;45271;-58
2022/10/17 11:20:01;;;;;;;;;4.00;4.00;;;;;21.24;51.84;101658.66;5016076;28;45357;-60
2022/10/17 11:22:31;;;;;;;;;5.00;4.50;;;;;21.23;52.16;101663.03;5015188;28;46977;-58
2022/10/17 11:25:36;;;;;;;;;5.00;5.00;;;;;21.24;52.07;101683.22;5015317;28;45327;-62
2022/10/17 11:28:10;;;;;;;;;7.00;6.00;;;;;21.23;52.18;101673.59;5014909;28;45347;-59
2022/10/17 11:30:47;;;;;;;;;5.25;5.25;;;;;21.25;52.04;101670.91;5019649;28;45467;-63
2022/10/17 11:33:19;;;;;;;;;5.00;5.00;;;;;21.24;52.19;101667.41;5036060;28;45330;-58
2022/10/17 11:35:48;;;;;;;;;7.00;6.00;;;;;21.25;52.02;101679.66;5019538;28;45390;-58
2022/10/17 11:38:31;;;;;;;;;6.50;5.00;;;;;21.26;52.21;101668.19;5022080;28;45492;-58
2022/10/17 11:40:58;;;;;;;;;4.50;4.50;;;;;21.26;52.24;101660.28;5018698;28;45264;-58
2022/10/17 11:43:35;;;;;;;;;4.00;4.00;;;;;21.26;52.02;101647.09;5018184;28;46455;-59
2022/10/17 11:46:10;;;;;;;;;5.00;5.00;;;;;21.26;52.00;101623.38;5019279;28;45796;-59
2022/10/17 11:48:44;;;;;;;;;5.50;5.50;;;;;21.25;52.21;101645.38;5018644;28;45453;-58
2022/10/17 11:51:13;;;;;;;;;4.75;4.00;;;;;21.25;52.14;101669.09;5023591;28;45335;-58
2022/10/17 11:53:48;;;;;;;;;6.00;4.00;;;;;21.25;52.35;101671.75;5041385;28;46390;-60
2022/10/17 11:56:19;;;;;;;;;6.75;6.75;;;;;21.26;52.06;101697.19;5039247;28;45127;-59
2022/10/17 11:59:06;;;;;;;;;5.25;5.00;;;;;21.26;52.02;101709.53;5030063;28;45359;-59
2022/10/17 12:01:38;;;;;;;;;5.00;5.00;;;;;21.26;52.22;101725.34;5040701;28;45278;-58
2022/10/17 12:04:19;;;;;;;;;5.50;5.25;;;;;21.26;52.49;101720.91;5027631;28;45161;-61
2022/10/17 12:07:08;;;;;;;;;5.50;4.00;;;;;21.26;52.52;101728.81;5021520;28;45249;-61
2022/10/17 12:10:12;;;;;;;;;7.25;5.50;;;;;21.26;52.04;101728.81;5018301;28;45291;-61
2022/10/17 12:12:39;;;;;;;;;5.00;5.00;;;;;21.25;52.17;101727.13;5018287;28;45309;-58
2022/10/17 12:15:10;;;;;;;;;5.75;4.00;;;;;21.27;52.10;101732.34;5017295;28;46361;-62
2022/10/17 12:17:40;;;;;;;;;4.00;4.00;;;;;21.27;52.54;101727.91;5017932;28;46056;-60
2022/10/17 12:20:22;;;;;;;;;4.50;4.50;;;;;21.27;52.43;101735.81;5017551;28;45327;-61
2022/10/17 12:22:50;;;;;;;;;6.75;6.00;;;;;21.26;52.06;101734.09;5026479;28;45220;-62
2022/10/17 12:25:32;;;;;;;;;5.00;5.00;;;;;21.27;52.27;101729.69;5039001;28;45564;-59
2022/10/17 12:28:09;;;;;;;;;4.25;4.25;;;;;21.27;52.34;101716.53;5043430;28;45085;-59
2022/10/17 12:30:35;;;;;;;;;4.50;4.50;;;;;21.27;52.47;101717.34;5042411;28;45317;-60
2022/10/17 12:33:20;;;;;;;;;6.50;6.50;;;;;21.27;52.28;101703.34;5037177;28;45442;-60
2022/10/17 12:35:46;;;;;;;;;7.50;5.00;;;;;21.28;52.40;101705.03;5023352;28;45383;-62
2022/10/17 12:38:25;;;;;;;;;5.50;5.50;;;;;21.27;52.41;101701.53;5020453;28;45491;-64
2022/10/17 12:40:53;;;;;;;;;0.75;0.75;;;;;21.26;52.03;101705.09;5017319;28;45149;-63
2022/10/17 12:43:27;;;;;;;;;6.00;5.00;;;;;21.27;52.15;101701.53;5017264;28;45354;-64
2022/10/17 12:46:00;;;;;;;;;5.25;5.25;;;;;21.27;52.82;101692.78;5017048;28;46307;-64
2022/10/17 12:48:32;;;;;;;;;6.00;6.00;;;;;21.27;52.51;101696.28;5017250;28;45232;-65
2022/10/17 12:51:03;;;;;;;;;5.00;5.00;;;;;21.27;52.20;101700.69;5017301;28;45404;-63
2022/10/17 12:53:45;;;;;;;;;7.25;6.00;;;;;21.26;52.67;101699.81;5019322;28;45718;-60
2022/10/17 12:56:20;;;;;;;;;4.50;4.50;;;;;21.27;52.46;101705.97;5018533;28;45451;-61
2022/10/17 12:58:49;;;;;;;;;7.00;6.25;;;;;21.27;52.24;101720.00;5026174;28;45342;-61
2022/10/17 13:01:36;;;;;;;;;6.25;5.00;;;;;21.26;52.57;101720.91;5033469;28;45363;-61
2022/10/17 13:04:04;;;;;;;;;5.25;4.50;;;;;21.26;52.63;101715.66;5021117;28;45434;-60
2022/10/17 13:06:38;;;;;;;;;6.50;6.00;;;;;21.27;52.55;101711.25;5029612;28;46345;-60
2022/10/17 13:09:09;;;;;;;;;5.50;5.00;;;;;21.26;52.55;101704.25;5028417;28;45429;-63
2022/10/17 13:11:38;;;;;;;;;6.00;5.75;;;;;21.24;52.89;101704.31;5028489;28;45350;-60
2022/10/17 13:14:11;;;;;;;;;5.00;5.00;;;;;21.26;52.58;101710.38;5024559;28;44841;-60
2022/10/17 13:16:39;;;;;;;;;5.75;5.75;;;;;21.25;52.32;101713.09;5017276;28;46444;-63
2022/10/17 13:19:17;;;;;;;;;6.75;5.75;;;;;21.25;51.80;101724.47;5016540;28;45840;-64
2022/10/17 13:21:59;;;;;;;;;6.50;5.25;;;;;21.26;52.63;101738.53;5017134;28;45255;-65
2022/10/17 13:24:29;;;;;;;;;4.00;4.00;;;;;21.26;52.75;101725.34;5019440;28;45288;-59
2022/10/17 13:26:55;;;;;;;;;6.00;6.00;;;;;21.25;52.70;101727.13;5016898;28;46053;-59
2022/10/17 13:29:22;;;;;;;;;6.50;5.25;;;;;21.23;52.52;101726.31;5016491;28;45338;-59
2022/10/17 13:31:53;;;;;;;;;4.00;4.00;;;;;21.25;52.56;101728.91;5016842;28;45264;-59
2022/10/17 13:34:24;;;;;;;;;5.00;5.00;;;;;21.25;52.65;101729.75;5016705;28;45457;-60
2022/10/17 13:36:54;;;;;;;;;5.25;5.25;;;;;21.26;52.79;101714.81;5016502;28;46180;-61
2022/10/17 13:39:23;;;;;;;;;5.50;5.00;;;;;21.26;52.37;101693.72;5016123;28;45416;-60
2022/10/17 13:41:50;;;;;;;;;5.00;5.00;;;;;21.26;52.54;101698.97;5016658;28;45501;-59
2022/10/17 13:44:20;;;;;;;;;5.75;5.00;;;;;21.26;52.48;101720.06;5016385;28;45232;-60
2022/10/17 13:46:46;;;;;;;;;4.75;4.75;;;;;21.27;52.50;101730.53;5016275;28;45469;-59
2022/10/17 13:49:33;;;;;;;;;8.25;5.25;;;;;21.26;52.62;101739.38;5016411;28;45401;-60
2022/10/17 13:52:01;;;;;;;;;7.50;4.75;;;;;21.26;52.94;101760.47;5028237;28;45403;-61
2022/10/17 13:54:34;;;;;;;;;4.75;4.75;;;;;21.26;52.91;101771.00;5037570;28;44782;-60
2022/10/17 13:57:01;;;;;;;;;5.00;5.00;;;;;21.27;52.69;101770.09;5017563;28;46356;-62
2022/10/17 13:59:39;;;;;;;;;5.25;4.25;;;;;21.27;52.57;101762.19;5016108;28;45891;-60
2022/10/17 14:02:11;;;;;;;;;6.00;4.25;;;;;21.28;52.50;101757.75;5015956;28;45474;-60
2022/10/17 14:04:37;;;;;;;;;5.25;5.25;;;;;21.27;52.75;101759.53;5016328;28;45494;-61
2022/10/17 14:07:04;;;;;;;;;5.00;5.00;;;;;21.26;52.82;101752.56;5015853;28;46377;-61
2022/10/17 14:09:31;;;;;;;;;5.75;5.25;;;;;21.27;52.58;101761.34;5016553;28;45439;-60
2022/10/17 14:12:12;;;;;;;;;8.00;4.50;;;;;21.27;52.50;101769.25;5016496;28;45449;-61
2022/10/17 14:14:39;;;;;;;;;6.00;4.25;;;;;21.26;52.56;101771.00;5016152;28;45426;-61
2022/10/17 14:17:22;;;;;;;;;5.00;5.00;;;;;21.27;52.68;101749.00;5014347;28;47938;-60
2022/10/17 14:19:54;;;;;;;;;7.00;5.50;;;;;21.28;52.63;101749.84;5015970;28;45746;-61
2022/10/17 14:22:20;;;;;;;;;5.00;5.00;;;;;21.28;52.63;101749.84;5015795;28;45228;-60
2022/10/17 14:24:46;;;;;;;;;7.00;5.00;;;;;21.28;52.54;101749.84;5016505;28;45474;-62
2022/10/17 14:27:25;;;;;;;;;5.00;5.00;;;;;21.27;52.66;101751.63;5016080;28;46762;-62
2022/10/17 14:29:53;;;;;;;;;5.50;5.50;;;;;21.27;52.64;101742.88;5024582;28;45756;-64
2022/10/17 14:32:19;;;;;;;;;5.00;5.00;;;;;21.27;52.76;101743.72;5026112;28;45333;-61
2022/10/17 14:34:45;;;;;;;;;6.50;5.25;;;;;21.27;52.75;101741.09;5035172;28;44877;-60
2022/10/17 14:37:31;;;;;;;;;5.00;4.00;;;;;21.27;52.97;101741.09;5020342;28;45477;-62
2022/10/17 14:40:01;;;;;;;;;5.00;5.00;;;;;21.27;52.62;101754.28;5016955;28;45758;-61
2022/10/17 14:42:27;;;;;;;;;5.75;5.75;;;;;21.26;52.89;101749.91;5026245;28;45442;-60
2022/10/17 14:44:58;;;;;;;;;5.25;5.00;;;;;21.28;53.01;101755.13;5034378;28;45348;-60
2022/10/17 14:47:26;;;;;;;;;5.75;4.00;;;;;21.28;52.55;101747.22;5027383;28;47381;-60
2022/10/17 14:50:05;;;;;;;;;5.00;5.00;;;;;21.27;52.60;101749.00;5016244;28;45917;-62
2022/10/17 14:52:33;;;;;;;;;6.00;6.00;;;;;21.27;52.69;101762.19;5016347;28;45280;-59
2022/10/17 14:55:10;;;;;;;;;8.00;4.00;;;;;21.26;52.97;101763.09;5016305;28;45265;-61
2022/10/17 14:57:43;;;;;;;;;5.25;4.00;;;;;21.27;52.62;101779.78;5015793;28;45343;-64
2022/10/17 15:00:13;;;;;;;;;2.50;2.50;;;;;21.28;52.88;101779.72;5015551;28;45728;-64
2022/10/17 15:02:39;;;;;;;;;6.00;6.00;;;;;21.27;52.88;101780.63;5014793;28;45406;-64
2022/10/17 15:05:04;;;;;;;;;5.00;5.00;;;;;21.28;52.73;101781.47;5017441;28;47701;-63
2022/10/17 15:07:32;;;;;;;;;5.00;5.00;;;;;21.28;52.68;101778.84;5028157;28;46211;-65
2022/10/17 15:09:58;;;;;;;;;5.00;5.00;;;;;21.28;52.84;101776.22;5038589;28;45096;-63
2022/10/17 15:12:25;;;;;;;;;4.50;4.00;;;;;21.28;52.49;101777.09;5024994;28;45232;-61
2022/10/17 15:14:50;;;;;;;;;6.00;6.00;;;;;21.27;52.74;101775.38;5019909;28;45371;-64
2022/10/17 15:17:28;;;;;;;;;6.25;5.50;;;;;21.27;53.01;101778.00;5029822;28;46230;-60
2022/10/17 15:19:55;;;;;;;;;4.50;4.00;;;;;21.25;52.96;101782.47;5027101;28;45692;-59
2022/10/17 15:22:21;;;;;;;;;4.75;4.75;;;;;21.27;52.61;101777.16;5023740;28;45288;-58
2022/10/17 15:24:46;;;;;;;;;5.00;5.00;;;;;21.26;52.94;101784.19;5028061;28;45342;-58
2022/10/17 15:27:23;;;;;;;;;6.25;5.25;;;;;21.26;52.91;101794.75;5035373;28;45498;-59
2022/10/17 15:29:50;;;;;;;;;5.00;5.00;;;;;21.26;53.26;101802.66;5037764;28;45216;-59
2022/10/17 15:32:16;;;;;;;;;5.00;5.00;;;;;21.27;52.70;101804.38;5033198;28;45465;-59
2022/10/17 15:34:41;;;;;;;;;5.50;4.75;;;;;21.27;53.02;101800.88;5041413;28;45835;-59
2022/10/17 15:37:17;;;;;;;;;5.00;5.00;;;;;21.27;52.77;101791.19;5030811;28;48363;-60
2022/10/17 15:39:44;;;;;;;;;5.50;5.00;;;;;21.27;53.00;101779.78;5021271;28;45835;-58
2022/10/17 15:42:10;;;;;;;;;5.00;5.00;;;;;21.24;52.64;101775.50;5020242;28;45296;-59
2022/10/17 15:44:36;;;;;;;;;4.50;4.50;;;;;21.23;53.07;101771.13;5027883;28;45487;-59
2022/10/17 15:47:01;;;;;;;;;6.00;6.00;;;;;21.26;52.83;101778.91;5040150;28;44929;-59
2022/10/17 15:49:26;;;;;;;;;7.00;4.75;;;;;21.26;52.89;101783.34;5036879;28;44879;-59
2022/10/17 15:51:52;;;;;;;;;5.00;4.00;;;;;21.26;52.77;101784.19;5018617;28;52352;-61
2022/10/17 15:54:17;;;;;;;;;5.00;5.00;;;;;21.27;52.75;101801.72;5018320;28;45554;-58
2022/10/17 15:56:48;;;;;;;;;3.50;3.00;;;;;21.25;52.70;101785.13;5018295;28;45965;-60
2022/10/17 15:59:19;;;;;;;;;4.00;4.00;;;;;21.24;52.73;101796.59;5018053;28;45465;-59
2022/10/17 16:01:44;;;;;;;;;5.75;4.25;;;;;21.28;52.91;101802.56;5019338;28;45387;-63
2022/10/17 16:04:13;;;;;;;;;5.00;4.75;;;;;21.25;52.76;101798.31;5017609;28;45567;-60
2022/10/17 16:06:38;;;;;;;;;5.00;5.00;;;;;21.27;52.81;101806.16;5016521;28;47379;-59
2022/10/17 16:09:04;;;;;;;;;5.00;5.00;;;;;21.26;52.97;101812.34;5017457;28;45486;-63
2022/10/17 16:11:32;;;;;;;;;6.50;4.00;;;;;21.28;53.01;101807.84;5018230;28;45315;-63
2022/10/17 16:14:02;;;;;;;;;5.25;4.25;;;;;21.28;52.67;101798.19;5018960;28;45590;-74
2022/10/17 16:16:27;;;;;;;;;6.25;5.50;;;;;21.28;53.17;101799.94;5023636;28;47293;-61
2022/10/17 16:18:53;;;;;;;;;5.50;4.00;;;;;21.29;52.94;101794.63;5041316;28;45398;-66
2022/10/17 16:21:21;;;;;;;;;4.00;4.00;;;;;21.33;53.21;101791.84;5040357;28;45379;-61
2022/10/17 16:23:47;;;;;;;;;4.25;4.25;;;;;21.33;53.17;101794.50;5032472;28;44829;-60
2022/10/17 16:26:14;;;;;;;;;7.75;5.00;;;;;21.36;53.33;101794.34;5017917;28;45340;-60
2022/10/17 16:28:40;;;;;;;;;4.25;4.25;;;;;21.39;53.10;101795.06;5034494;28;46163;-61
2022/10/17 16:31:21;;;;;;;;;5.00;5.00;;;;;21.41;53.19;101800.28;5037610;28;45433;-60
2022/10/17 16:33:49;;;;;;;;;5.50;4.25;;;;;21.43;52.98;101801.06;5037633;28;45332;-60
2022/10/17 16:36:14;;;;;;;;;6.50;6.00;;;;;21.49;53.03;101805.22;5036943;28;47055;-59
2022/10/17 16:38:39;;;;;;;;;6.25;5.25;;;;;21.51;53.01;101808.63;5036916;28;45365;-61
2022/10/17 16:41:18;;;;;;;;;6.75;6.75;;;;;21.53;53.63;101807.66;5036776;28;45311;-60
2022/10/17 16:43:43;;;;;;;;;7.25;6.00;;;;;21.54;53.11;101806.75;5037591;28;45402;-58
2022/10/17 16:46:08;;;;;;;;;6.00;5.00;;;;;21.55;53.29;101805.78;5036399;28;53124;-60
2022/10/17 16:48:34;;;;;;;;;5.25;5.25;;;;;21.56;53.44;101807.50;5036969;28;45547;-63
2022/10/17 16:51:01;;;;;;;;;4.00;2.50;;;;;21.59;53.26;101812.69;5037482;28;45254;-63
2022/10/17 16:53:26;;;;;;;;;7.00;6.00;;;;;21.59;52.99;101812.69;5037146;28;45306;-62
2022/10/17 16:56:02;;;;;;;;;5.00;5.00;;;;;21.61;53.32;101813.47;5036723;28;45591;-63
2022/10/17 16:58:30;;;;;;;;;5.25;5.25;;;;;21.62;53.11;101804.63;5036662;28;45858;-64
2022/10/17 17:01:01;;;;;;;;;4.75;4.75;;;;;21.65;53.08;101805.44;5036975;28;45337;-62
2022/10/17 17:03:26;;;;;;;;;5.00;5.00;;;;;21.67;52.96;101814.97;5036610;28;45494;-62
2022/10/17 17:05:52;;;;;;;;;7.25;5.50;;;;;21.67;52.94;101808.84;5037182;28;46982;-62
2022/10/17 17:08:17;;;;;;;;;4.75;4.75;;;;;21.69;53.14;101828.09;5052690;28;45526;-62
2022/10/17 17:10:48;;;;;;;;;8.00;6.00;;;;;21.71;53.26;101826.25;5060805;28;45363;-63
2022/10/17 17:13:14;;;;;;;;;5.75;5.50;;;;;21.71;53.08;101821.84;5039457;28;45382;-62
2022/10/17 17:15:40;;;;;;;;;5.00;5.00;;;;;21.72;52.93;101822.69;5054608;28;46017;-62
2022/10/17 17:18:05;;;;;;;;;4.75;4.75;;;;;21.72;53.06;101820.91;5054399;28;45260;-63
2022/10/17 17:20:31;;;;;;;;;5.00;5.00;;;;;21.75;53.08;101825.19;5037138;28;51535;-62
2022/10/17 17:22:56;;;;;;;;;5.25;5.25;;;;;21.76;53.07;101826.91;5036699;28;45386;-61
2022/10/17 17:25:22;;;;;;;;;4.00;4.00;;;;;21.77;53.04;101826.00;5035020;28;61055;-64
2022/10/17 17:27:47;;;;;;;;;6.25;5.00;;;;;21.77;52.88;101820.72;5036612;28;45320;-62
2022/10/17 17:30:13;;;;;;;;;7.00;5.75;;;;;21.78;53.16;101828.56;5040239;28;45399;-60
2022/10/17 17:32:38;;;;;;;;;5.25;4.25;;;;;21.78;52.93;101822.41;5038608;28;45496;-59
2022/10/17 17:35:04;;;;;;;;;5.25;5.25;;;;;21.80;53.01;101825.00;5044881;28;45339;-61
2022/10/17 17:37:29;;;;;;;;;7.75;4.75;;;;;21.80;53.25;101825.00;5053555;28;45370;-63
2022/10/17 17:39:55;;;;;;;;;7.00;5.00;;;;;21.81;53.07;101826.72;5044884;28;48809;-63
2022/10/17 17:42:20;;;;;;;;;6.50;6.50;;;;;21.82;53.00;101829.25;5025653;28;45430;-63
2022/10/17 17:44:47;;;;;;;;;9.00;7.00;;;;;21.81;52.97;101822.28;5043761;28;45635;-63
2022/10/17 17:47:12;;;;;;;;;3.25;2.00;;;;;21.80;53.06;101828.47;5045763;28;46348;-63
2022/10/17 17:49:38;;;;;;;;;8.00;7.00;;;;;21.80;52.89;101825.84;5042282;28;45441;-63
2022/10/17 17:52:03;;;;;;;;;5.00;5.00;;;;;21.79;52.80;101824.13;5038687;28;45405;-63
2022/10/17 17:54:29;;;;;;;;;6.00;6.00;;;;;21.79;52.92;101832.03;5034820;28;46732;-58
2022/10/17 17:56:54;;;;;;;;;8.00;7.00;;;;;21.80;52.98;101831.09;5037503;28;45363;-60
2022/10/17 17:59:19;;;;;;;;;6.00;5.25;;;;;21.80;53.25;101836.38;5035490;28;45308;-56
2022/10/17 18:01:45;;;;;;;;;11.50;7.00;;;;;21.80;53.60;101838.19;5035398;28;46823;-58
2022/10/17 18:04:10;;;;;;;;;9.00;6.00;;;;;21.81;53.20;101826.72;5035083;28;46381;-63
2022/10/17 18:06:37;;;;;;;;;7.00;6.00;;;;;21.82;53.15;101829.25;5035559;28;45568;-64
2022/10/17 18:09:04;;;;;;;;;7.00;6.25;;;;;21.82;53.37;101831.91;5034665;28;45317;-64
2022/10/17 18:11:29;;;;;;;;;8.25;6.75;;;;;21.83;53.40;101833.63;5036082;28;45590;-63
2022/10/17 18:13:57;;;;;;;;;10.25;7.25;;;;;21.84;53.64;101834.47;5035355;28;45542;-66
2022/10/17 18:16:23;;;;;;;;;11.00;9.00;;;;;21.82;53.50;101829.25;5035022;28;45815;-67
2022/10/17 18:18:49;;;;;;;;;10.50;9.25;;;;;21.83;53.61;101820.44;5035644;28;45463;-67
2022/10/17 18:21:14;;;;;;;;;9.00;9.00;;;;;21.86;54.06;101829.97;5035192;28;45479;-67
2022/10/17 18:23:42;;;;;;;;;12.25;7.50;;;;;21.86;54.35;101825.56;5035426;28;46232;-68
2022/10/17 18:26:08;;;;;;;;;6.75;5.50;;;;;21.87;54.00;101827.28;5035556;28;45330;-68
2022/10/17 18:28:34;;;;;;;;;9.00;9.00;;;;;21.88;54.01;101834.25;5036142;28;45243;-68
2022/10/17 18:31:18;;;;;;;;;10.25;8.50;;;;;21.88;54.33;101834.25;5035974;28;45446;-67
2022/10/17 18:33:45;;;;;;;;;8.00;8.00;;;;;21.87;54.54;101842.25;5035405;28;47007;-66
2022/10/17 18:36:13;;;;;;;;;10.50;8.00;;;;;21.88;54.58;101844.81;5035000;28;45444;-66
2022/10/17 18:38:38;;;;;;;;;7.00;6.50;;;;;21.89;54.77;101851.81;5035395;28;45368;-66
2022/10/17 18:41:09;;;;;;;;;8.25;8.00;;;;;21.90;54.56;101847.41;5035267;28;45592;-66
2022/10/17 18:43:36;;;;;;;;;7.00;7.00;;;;;21.87;54.64;101848.41;5035735;28;45369;-63
2022/10/17 18:46:08;;;;;;;;;8.75;7.50;;;;;21.89;54.52;101857.09;5039123;28;45844;-65
2022/10/17 18:48:33;;;;;;;;;7.50;7.00;;;;;21.90;54.57;101856.16;5039037;28;45339;-63
2022/10/17 18:51:01;;;;;;;;;7.25;5.25;;;;;21.90;54.88;101852.69;5038075;28;45375;-63
2022/10/17 18:53:27;;;;;;;;;10.00;9.00;;;;;21.89;54.71;101854.44;5038546;28;45776;-69
2022/10/17 18:55:52;;;;;;;;;9.00;7.50;;;;;21.88;54.62;101851.88;5038927;28;45331;-67
2022/10/17 18:58:20;;;;;;;;;8.50;8.50;;;;;21.87;54.74;101843.13;5038659;28;45899;-67
2022/10/17 19:00:45;;;;;;;;;8.00;8.00;;;;;21.91;54.83;101857.03;5038898;28;45303;-64
2022/10/17 19:03:11;;;;;;;;;10.75;7.25;;;;;21.89;54.77;101851.81;5038282;28;46976;-62
2022/10/17 19:05:40;;;;;;;;;8.00;7.00;;;;;21.92;54.66;101851.69;5038726;28;45359;-63
2022/10/17 19:08:06;;;;;;;;;7.75;7.25;;;;;21.91;54.53;101855.22;5038598;28;45461;-67
2022/10/17 19:10:36;;;;;;;;;10.50;9.00;;;;;21.91;54.47;101859.66;5039085;28;45854;-65
2022/10/17 19:13:01;;;;;;;;;9.00;9.00;;;;;21.92;54.67;101867.50;5038259;28;46301;-64
2022/10/17 19:15:27;;;;;;;;;8.00;8.00;;;;;21.93;54.54;101866.59;5037722;28;45312;-63
2022/10/17 19:17:52;;;;;;;;;11.25;8.75;;;;;21.93;55.09;101873.66;5037914;28;51531;-64
2022/10/17 19:20:17;;;;;;;;;10.00;8.25;;;;;21.93;54.60;101873.66;5036831;28;45217;-62
2022/10/17 19:22:43;;;;;;;;;9.25;7.75;;;;;21.93;54.55;101878.94;5038353;28;55253;-62
2022/10/17 19:25:08;;;;;;;;;10.25;9.00;;;;;21.93;54.45;101873.66;5059152;28;45237;-61
2022/10/17 19:27:34;;;;;;;;;8.75;8.75;;;;;21.97;54.75;101884.94;5061087;28;44868;-62
2022/10/17 19:29:59;;;;;;;;;9.50;9.00;;;;;21.97;54.67;101875.22;5043428;28;45284;-61
2022/10/17 19:32:25;;;;;;;;;9.75;8.50;;;;;21.98;54.65;101873.44;5050371;28;47479;-61
2022/10/17 19:34:50;;;;;;;;;7.00;7.00;;;;;21.98;54.63;101876.09;5047418;28;45484;-62
2022/10/17 19:37:15;;;;;;;;;10.50;10.00;;;;;21.99;54.76;101875.16;5049653;28;45315;-60
2022/10/17 19:39:41;;;;;;;;;10.75;9.25;;;;;22.00;54.68;101871.56;5065974;28;44787;-60
2022/10/17 19:42:06;;;;;;;;;8.00;8.00;;;;;21.99;54.56;101876.00;5066049;28;56177;-60
2022/10/17 19:44:31;;;;;;;;;9.50;9.25;;;;;22.00;54.57;101879.50;5057898;28;45398;-62
2022/10/17 19:46:57;;;;;;;;;6.50;6.50;;;;;22.00;54.63;101882.13;5062132;28;45299;-62
2022/10/17 19:49:22;;;;;;;;;6.67;6.33;;;;;22.01;54.52;101886.50;5049396;28;47080;-62
2022/10/17 19:51:47;;;;;;;;;9.00;7.00;;;;;22.01;54.53;101884.72;5061966;28;60310;-62
2022/10/17 19:54:15;;;;;;;;;8.25;8.25;;;;;22.00;54.68;101884.78;5061444;28;44837;-60
2022/10/17 19:56:42;;;;;;;;;10.00;7.00;;;;;22.00;54.14;101882.13;5060580;28;45414;-62
2022/10/17 19:59:11;;;;;;;;;8.00;8.00;;;;;21.99;54.45;101885.72;5063565;28;44815;-64
2022/10/17 20:01:40;;;;;;;;;8.50;8.00;;;;;22.00;54.45;101882.13;5057891;28;45362;-61
2022/10/17 20:04:07;;;;;;;;;9.00;7.00;;;;;22.00;54.20;101885.66;5043942;28;45767;-61
2022/10/17 20:06:33;;;;;;;;;7.75;7.00;;;;;21.99;53.99;101878.66;5045638;28;45650;-59
2022/10/17 20:08:58;;;;;;;;;8.50;7.00;;;;;22.00;54.28;101884.78;5048968;28;45589;-60
2022/10/17 20:11:26;;;;;;;;;10.25;9.00;;;;;22.01;54.35;101881.22;5039038;28;45259;-62
2022/10/17 20:13:53;;;;;;;;;8.00;8.00;;;;;22.02;54.55;101882.94;5036112;28;45471;-61
2022/10/17 20:16:24;;;;;;;;;10.50;7.25;;;;;22.00;54.45;101879.50;5037406;28;45322;-60